createdAt,value
2018-10-17T00:00:12.074Z,16.13
2018-10-17T00:01:12.113Z,16.08
2018-10-17T00:02:12.009Z,16.10
2018-10-17T00:03:11.974Z,16.02
2018-10-17T00:04:11.933Z,16.02
2018-10-17T00:05:11.938Z,16.00
2018-10-17T00:06:11.860Z,16.04
2018-10-17T00:07:11.886Z,16.05
2018-10-17T00:08:11.797Z,16.00
2018-10-17T00:09:11.753Z,15.97
2018-10-17T00:10:11.725Z,15.98
2018-10-17T00:11:11.752Z,16.00
2018-10-17T00:12:11.654Z,16.04
2018-10-17T00:13:11.652Z,15.97
2018-10-17T00:14:11.582Z,16.00
2018-10-17T00:15:11.548Z,15.94
2018-10-17T00:16:11.512Z,15.92
2018-10-17T00:17:11.512Z,15.95
2018-10-17T00:18:11.446Z,15.80
2018-10-17T00:19:11.495Z,15.79
2018-10-17T00:20:11.367Z,15.94
2018-10-17T00:21:11.333Z,15.94
2018-10-17T00:22:11.302Z,15.90
2018-10-17T00:23:11.361Z,15.97
2018-10-17T00:24:11.231Z,16.04
2018-10-17T00:25:11.227Z,16.09
2018-10-17T00:26:11.155Z,16.24
2018-10-17T00:27:11.126Z,16.20
2018-10-17T00:28:11.087Z,16.35
2018-10-17T00:29:11.085Z,16.35
2018-10-17T00:30:11.013Z,16.46
2018-10-17T00:31:11.087Z,16.46
2018-10-17T00:32:10.944Z,16.39
2018-10-17T00:33:10.906Z,16.41
2018-10-17T00:34:10.878Z,16.42
2018-10-17T00:35:10.906Z,16.53
2018-10-17T00:36:10.805Z,16.43
2018-10-17T00:37:10.843Z,16.49
2018-10-17T00:38:10.730Z,16.51
2018-10-17T00:39:10.697Z,16.46
2018-10-17T00:40:10.665Z,16.46
2018-10-17T00:41:10.720Z,16.53
2018-10-17T00:42:10.598Z,16.42
2018-10-17T00:43:10.630Z,16.43
2018-10-17T00:44:10.522Z,16.49
2018-10-17T00:45:10.483Z,16.50
2018-10-17T00:46:10.455Z,16.51
2018-10-17T00:47:10.457Z,16.51
2018-10-17T00:48:10.383Z,16.57
2018-10-17T00:49:10.377Z,16.46
2018-10-17T00:50:10.308Z,16.39
2018-10-17T00:51:10.275Z,16.47
2018-10-17T00:52:10.240Z,16.49
2018-10-17T00:53:10.262Z,16.38
2018-10-17T00:54:10.174Z,16.46
2018-10-17T00:55:10.161Z,16.49
2018-10-17T00:56:10.101Z,16.47
2018-10-17T00:57:10.066Z,16.41
2018-10-17T00:58:10.026Z,16.51
2018-10-17T00:59:10.029Z,16.50
2018-10-17T01:00:09.960Z,16.39
2018-10-17T01:01:09.990Z,16.47
2018-10-17T01:02:09.886Z,16.43
2018-10-17T01:03:09.853Z,16.39
2018-10-17T01:04:09.815Z,16.43
2018-10-17T01:05:09.871Z,16.29
2018-10-17T01:06:09.749Z,16.36
2018-10-17T01:07:09.783Z,16.31
2018-10-17T01:08:09.676Z,16.31
2018-10-17T01:09:09.644Z,16.26
2018-10-17T01:10:09.602Z,16.21
2018-10-17T01:11:09.629Z,16.26
2018-10-17T01:12:09.537Z,16.12
2018-10-17T01:13:09.513Z,16.12
2018-10-17T01:14:09.467Z,16.10
2018-10-17T01:15:09.431Z,16.01
2018-10-17T01:16:09.396Z,16.04
2018-10-17T01:17:09.454Z,15.94
2018-10-17T01:18:09.329Z,15.98
2018-10-17T01:19:09.352Z,15.88
2018-10-17T01:20:09.253Z,15.92
2018-10-17T01:21:09.219Z,15.84
2018-10-17T01:22:09.181Z,15.72
2018-10-17T01:23:09.187Z,15.75
2018-10-17T01:24:09.108Z,15.61
2018-10-17T01:25:09.178Z,15.61
2018-10-17T01:26:09.047Z,15.59
2018-10-17T01:27:09.005Z,15.59
2018-10-17T01:28:08.968Z,15.61
2018-10-17T01:29:08.989Z,15.57
2018-10-17T01:30:08.897Z,15.57
2018-10-17T01:31:08.936Z,15.59
2018-10-17T01:32:08.827Z,15.52
2018-10-17T01:33:08.794Z,15.47
2018-10-17T01:34:08.755Z,15.46
2018-10-17T01:35:08.786Z,15.51
2018-10-17T01:36:08.682Z,15.46
2018-10-17T01:37:08.708Z,15.43
2018-10-17T01:38:08.618Z,15.37
2018-10-17T01:39:08.578Z,15.36
2018-10-17T01:40:08.543Z,15.22
2018-10-17T01:41:08.546Z,15.24
2018-10-17T01:42:08.467Z,15.27
2018-10-17T01:43:08.456Z,15.28
2018-10-17T01:44:08.397Z,15.18
2018-10-17T01:45:08.361Z,15.19
2018-10-17T01:46:08.332Z,15.18
2018-10-17T01:47:08.395Z,15.22
2018-10-17T01:48:08.255Z,15.14
2018-10-17T01:49:08.293Z,15.17
2018-10-17T01:50:08.189Z,15.15
2018-10-17T01:51:08.151Z,15.09
2018-10-17T01:52:08.115Z,15.07
2018-10-17T01:53:08.157Z,14.99
2018-10-17T01:54:08.039Z,15.04
2018-10-17T01:55:08.043Z,15.00
2018-10-17T01:56:07.967Z,14.94
2018-10-17T01:57:07.933Z,15.02
2018-10-17T01:58:07.900Z,15.04
2018-10-17T01:59:07.921Z,14.96
2018-10-17T02:00:07.826Z,14.96
2018-10-17T02:01:07.838Z,15.00
2018-10-17T02:02:07.750Z,15.00
2018-10-17T02:03:07.716Z,14.96
2018-10-17T02:04:07.682Z,15.00
2018-10-17T02:05:07.723Z,14.88
2018-10-17T02:06:07.607Z,14.94
2018-10-17T02:07:07.601Z,14.84
2018-10-17T02:08:07.540Z,14.82
2018-10-17T02:09:07.501Z,14.82
2018-10-17T02:10:07.471Z,14.78
2018-10-17T02:11:07.492Z,14.77
2018-10-17T02:12:07.396Z,14.68
2018-10-17T02:13:07.382Z,14.82
2018-10-17T02:14:07.319Z,14.81
2018-10-17T02:15:07.286Z,14.78
2018-10-17T02:16:07.253Z,14.82
2018-10-17T02:17:07.285Z,14.77
2018-10-17T02:18:07.181Z,14.73
2018-10-17T02:19:07.215Z,14.81
2018-10-17T02:20:07.106Z,14.78
2018-10-17T02:21:07.070Z,14.79
2018-10-17T02:22:07.039Z,14.82
2018-10-17T02:23:15.745Z,14.78
2018-10-17T02:25:11.461Z,14.78
2018-10-17T02:26:11.343Z,14.78
2018-10-17T02:27:11.307Z,14.77
2018-10-17T02:28:11.272Z,14.77
2018-10-17T02:29:11.336Z,14.69
2018-10-17T02:30:11.197Z,14.73
2018-10-17T02:31:11.239Z,14.84
2018-10-17T02:32:11.127Z,14.73
2018-10-17T02:33:11.088Z,14.65
2018-10-17T02:34:11.058Z,14.78
2018-10-17T02:35:11.036Z,14.70
2018-10-17T02:36:10.988Z,14.82
2018-10-17T02:37:11.090Z,14.81
2018-10-17T02:38:10.908Z,14.85
2018-10-17T02:39:10.872Z,14.89
2018-10-17T02:40:10.836Z,14.89
2018-10-17T02:41:10.820Z,14.97
2018-10-17T02:42:10.769Z,14.96
2018-10-17T02:43:10.812Z,15.03
2018-10-17T02:44:10.691Z,15.03
2018-10-17T02:45:10.654Z,14.85
2018-10-17T02:46:10.628Z,14.88
2018-10-17T02:47:10.601Z,14.99
2018-10-17T02:48:10.552Z,14.94
2018-10-17T02:49:10.582Z,15.03
2018-10-17T02:50:10.475Z,15.02
2018-10-17T02:51:10.438Z,14.99
2018-10-17T02:52:10.402Z,15.04
2018-10-17T02:53:10.415Z,15.06
2018-10-17T02:54:10.336Z,15.07
2018-10-17T02:55:10.334Z,15.07
2018-10-17T02:56:10.261Z,15.14
2018-10-17T02:57:10.229Z,15.15
2018-10-17T02:58:10.185Z,15.19
2018-10-17T02:59:10.200Z,15.15
2018-10-17T03:00:10.117Z,15.14
2018-10-17T03:01:10.100Z,15.14
2018-10-17T03:02:10.040Z,15.10
2018-10-17T03:03:10.005Z,15.11
2018-10-17T03:04:09.970Z,15.24
2018-10-17T03:05:09.999Z,15.14
2018-10-17T03:06:09.904Z,15.22
2018-10-17T03:07:09.958Z,15.19
2018-10-17T03:08:09.827Z,15.21
2018-10-17T03:09:09.793Z,15.18
2018-10-17T03:10:09.751Z,15.28
2018-10-17T03:11:09.813Z,15.19
2018-10-17T03:12:09.680Z,15.17
2018-10-17T03:13:09.702Z,15.24
2018-10-17T03:14:09.612Z,15.22
2018-10-17T03:15:09.573Z,15.24
2018-10-17T03:16:09.535Z,15.22
2018-10-17T03:17:09.613Z,15.19
2018-10-17T03:18:09.469Z,15.25
2018-10-17T03:19:09.448Z,15.21
2018-10-17T03:20:09.397Z,15.18
2018-10-17T03:21:09.362Z,15.31
2018-10-17T03:22:09.318Z,15.19
2018-10-17T03:23:09.323Z,15.24
2018-10-17T03:24:09.247Z,15.27
2018-10-17T03:25:09.317Z,15.22
2018-10-17T03:26:09.178Z,15.29
2018-10-17T03:27:09.140Z,15.33
2018-10-17T03:28:09.110Z,15.37
2018-10-17T03:29:09.152Z,15.33
2018-10-17T03:30:09.027Z,15.49
2018-10-17T03:31:09.099Z,15.47
2018-10-17T03:32:08.973Z,15.42
2018-10-17T03:33:08.925Z,15.46
2018-10-17T03:34:08.883Z,15.46
2018-10-17T03:35:08.913Z,15.49
2018-10-17T03:36:08.814Z,15.47
2018-10-17T03:37:08.840Z,15.52
2018-10-17T03:38:08.745Z,15.47
2018-10-17T03:39:08.707Z,15.44
2018-10-17T03:40:08.674Z,15.49
2018-10-17T03:41:08.650Z,15.49
2018-10-17T03:42:08.595Z,15.47
2018-10-17T03:43:08.647Z,15.43
2018-10-17T03:44:08.525Z,15.49
2018-10-17T03:45:08.487Z,15.62
2018-10-17T03:46:08.460Z,15.49
2018-10-17T03:47:08.452Z,15.44
2018-10-17T03:48:08.382Z,15.62
2018-10-17T03:49:08.441Z,15.58
2018-10-17T03:50:08.314Z,15.61
2018-10-17T03:51:08.276Z,15.52
2018-10-17T03:52:08.240Z,15.57
2018-10-17T03:53:08.297Z,15.61
2018-10-17T04:07:09.126Z,15.43
2018-10-17T04:08:01.351Z,15.37
2018-10-17T04:09:01.314Z,15.27
2018-10-17T04:10:01.293Z,15.28
2018-10-17T04:11:01.292Z,15.37
2018-10-17T04:12:01.184Z,15.33
2018-10-17T04:13:01.149Z,15.35
2018-10-17T04:14:01.107Z,15.44
2018-10-17T04:15:01.066Z,15.46
2018-10-17T10:21:26.519Z,19.95
2018-10-17T10:22:26.346Z,19.88
2018-10-17T10:23:26.320Z,19.92
2018-10-17T10:24:26.271Z,19.85
2018-10-17T10:25:26.431Z,19.79
2018-10-17T10:26:26.192Z,19.85
2018-10-17T10:27:26.157Z,19.82
2018-10-17T10:28:26.237Z,19.76
2018-10-17T10:29:26.082Z,20.03
2018-10-17T10:30:26.075Z,20.06
2018-10-17T10:31:26.016Z,20.11
2018-10-17T10:32:25.977Z,20.14
2018-10-17T10:33:25.947Z,20.03
2018-10-17T10:34:25.912Z,20.06
2018-10-17T10:35:25.877Z,20.11
2018-10-17T10:36:25.846Z,20.19
2018-10-17T10:37:25.802Z,20.14
2018-10-17T10:38:25.771Z,20.14
2018-10-17T10:39:25.736Z,20.21
2018-10-17T10:40:25.714Z,20.18
2018-10-17T10:41:25.679Z,20.06
2018-10-17T10:42:25.637Z,20.07
2018-10-17T10:43:25.600Z,20.18
2018-10-17T10:44:25.569Z,20.21
2018-10-17T10:45:25.541Z,20.19
2018-10-17T10:46:25.502Z,20.39
2018-10-17T10:47:25.471Z,20.41
2018-10-17T10:48:25.439Z,20.29
2018-10-17T10:49:25.396Z,20.39
2018-10-17T10:50:25.373Z,20.32
2018-10-17T10:51:25.366Z,20.28
2018-10-17T10:52:25.297Z,20.41
2018-10-17T10:53:25.271Z,20.41
2018-10-17T10:54:25.239Z,20.59
2018-10-17T10:55:25.207Z,20.48
2018-10-17T10:56:25.175Z,20.51
2018-10-17T10:57:25.310Z,20.52
2018-10-17T10:58:25.385Z,20.51
2018-10-17T10:59:25.292Z,20.52
2018-10-17T11:00:25.045Z,20.51
2018-10-17T11:01:25.001Z,20.50
2018-10-17T11:02:24.972Z,20.56
2018-10-17T11:03:24.937Z,20.59
2018-10-17T11:04:24.921Z,20.48
2018-10-17T11:05:24.989Z,20.51
2018-10-17T11:06:24.845Z,20.51
2018-10-17T11:07:24.810Z,20.52
2018-10-17T11:08:24.778Z,20.51
2018-10-17T11:09:24.739Z,20.51
2018-10-17T11:10:24.726Z,20.58
2018-10-17T11:11:24.675Z,20.62
2018-10-17T11:12:24.641Z,20.63
2018-10-17T11:13:24.615Z,20.62
2018-10-17T11:14:24.605Z,20.70
2018-10-17T11:15:24.553Z,20.80
2018-10-17T11:16:24.508Z,20.63
2018-10-17T11:17:24.482Z,20.69
2018-10-17T11:18:24.452Z,20.67
2018-10-17T11:19:24.462Z,20.72
2018-10-17T11:20:24.556Z,20.77
2018-10-17T11:21:24.350Z,20.72
2018-10-17T11:22:24.319Z,20.75
2018-10-17T11:23:24.286Z,20.85
2018-10-17T11:24:24.253Z,20.90
2018-10-17T11:25:24.644Z,20.96
2018-10-17T11:26:24.190Z,20.99
2018-10-17T11:27:24.301Z,20.99
2018-10-17T11:41:47.757Z,20.99
2018-10-17T11:42:38.182Z,20.95
2018-10-17T11:43:36.862Z,21.02
2018-10-17T11:44:37.457Z,21.09
2018-10-17T11:45:36.656Z,21.06
2018-10-17T11:46:36.622Z,21.05
2018-10-17T11:47:36.643Z,21.12
2018-10-17T11:48:36.552Z,21.06
2018-10-17T11:49:36.516Z,21.15
2018-10-17T11:50:36.562Z,21.17
2018-10-17T11:51:36.457Z,21.21
2018-10-17T11:52:36.429Z,21.18
2018-10-17T11:53:36.390Z,21.32
2018-10-17T11:54:36.359Z,21.27
2018-10-17T11:55:36.329Z,21.39
2018-10-17T11:56:36.298Z,21.24
2018-10-17T11:57:36.266Z,21.24
2018-10-17T11:58:36.236Z,21.33
2018-10-17T11:59:36.271Z,21.33
2018-10-17T12:00:36.170Z,21.33
2018-10-17T12:01:36.135Z,21.32
2018-10-17T12:02:36.106Z,21.37
2018-10-17T12:03:36.174Z,21.30
2018-10-17T12:04:36.249Z,21.32
2018-10-17T12:05:36.310Z,21.35
2018-10-17T12:06:36.051Z,21.35
2018-10-17T12:07:35.953Z,21.29
2018-10-17T12:08:35.919Z,21.35
2018-10-17T12:09:35.928Z,21.37
2018-10-17T12:10:35.875Z,21.29
2018-10-17T12:11:35.877Z,21.36
2018-10-17T12:12:35.785Z,21.43
2018-10-17T12:13:35.755Z,21.42
2018-10-17T12:14:35.748Z,21.40
2018-10-17T12:15:35.691Z,21.46
2018-10-17T12:16:35.663Z,21.39
2018-10-17T12:17:35.633Z,21.40
2018-10-17T12:18:35.595Z,21.51
2018-10-17T12:19:35.575Z,21.64
2018-10-17T12:20:35.527Z,21.48
2018-10-17T12:21:35.557Z,21.66
2018-10-17T12:22:35.466Z,21.58
2018-10-17T12:23:35.436Z,21.66
2018-10-17T12:24:35.405Z,21.46
2018-10-17T12:25:35.368Z,21.42
2018-10-17T12:26:35.338Z,21.45
2018-10-17T12:27:35.365Z,21.60
2018-10-17T12:28:35.391Z,21.58
2018-10-17T12:29:35.247Z,21.70
2018-10-17T12:30:35.213Z,21.61
2018-10-17T12:31:35.181Z,21.55
2018-10-17T12:32:35.148Z,21.76
2018-10-17T12:33:35.113Z,21.57
2018-10-17T12:34:35.084Z,21.55
2018-10-17T12:35:35.056Z,21.57
2018-10-17T12:36:35.026Z,21.39
2018-10-17T12:37:34.993Z,21.52
2018-10-17T12:38:34.966Z,21.60
2018-10-17T12:39:34.940Z,21.58
2018-10-17T12:40:34.985Z,21.64
2018-10-17T12:41:34.960Z,21.69
2018-10-17T12:42:34.838Z,21.72
2018-10-17T12:43:34.800Z,21.75
2018-10-17T12:44:34.765Z,21.75
2018-10-17T12:45:34.791Z,21.70
2018-10-17T12:46:34.705Z,21.67
2018-10-17T12:47:34.674Z,21.67
2018-10-17T12:48:34.647Z,21.77
2018-10-17T12:49:34.636Z,21.82
2018-10-17T12:50:34.579Z,21.85
2018-10-17T12:51:34.547Z,21.93
2018-10-17T12:52:34.571Z,21.99
2018-10-17T12:53:34.496Z,21.85
2018-10-17T12:54:34.454Z,21.91
2018-10-17T12:55:34.424Z,21.99
2018-10-17T12:56:34.393Z,21.96
2018-10-17T12:57:34.359Z,21.98
2018-10-17T12:58:34.327Z,21.93
2018-10-17T12:59:34.300Z,21.96
2018-10-17T13:00:34.273Z,21.98
2018-10-17T13:01:34.242Z,21.99
2018-10-17T13:02:34.205Z,21.96
2018-10-17T13:03:34.170Z,22.00
2018-10-17T13:04:34.138Z,22.13
2018-10-17T13:05:34.107Z,22.11
2018-10-17T13:06:34.074Z,21.98
2018-10-17T13:07:34.051Z,22.10
2018-10-17T13:08:34.021Z,22.11
2018-10-17T13:09:34.013Z,22.10
2018-10-17T13:10:33.954Z,22.13
2018-10-17T13:11:34.029Z,22.06
2018-10-17T13:12:33.891Z,22.02
2018-10-17T13:13:33.857Z,21.89
2018-10-17T13:14:33.831Z,21.92
2018-10-17T13:15:33.798Z,21.98
2018-10-17T13:16:33.767Z,21.89
2018-10-17T13:17:33.735Z,21.92
2018-10-17T13:18:33.951Z,21.95
2018-10-17T13:19:33.676Z,21.95
2018-10-17T13:20:33.707Z,21.99
2018-10-17T13:21:33.608Z,21.98
2018-10-17T13:22:33.646Z,21.98
2018-10-17T13:23:33.543Z,21.99
2018-10-17T13:24:33.590Z,22.08
2018-10-17T13:25:33.512Z,22.10
2018-10-17T13:26:33.670Z,22.11
2018-10-17T13:27:33.437Z,22.11
2018-10-17T13:28:33.390Z,22.04
2018-10-17T13:29:33.375Z,22.11
2018-10-17T13:30:33.324Z,22.07
2018-10-17T13:31:33.300Z,22.18
2018-10-17T13:32:33.378Z,22.23
2018-10-17T13:33:33.271Z,22.22
2018-10-17T13:34:33.593Z,22.23
2018-10-17T13:35:33.375Z,22.25
2018-10-17T13:36:33.325Z,22.22
2018-10-17T13:37:33.402Z,22.07
2018-10-17T13:38:33.075Z,22.13
2018-10-17T13:39:33.248Z,22.07
2018-10-17T13:40:33.091Z,22.07
2018-10-17T13:41:33.112Z,22.10
2018-10-17T13:42:32.964Z,22.11
2018-10-17T13:43:32.934Z,22.02
2018-10-17T13:44:33.051Z,22.07
2018-10-17T13:45:32.854Z,22.00
2018-10-17T13:46:32.826Z,22.14
2018-10-17T13:47:32.789Z,22.11
2018-10-17T13:48:32.826Z,22.15
2018-10-17T13:49:32.837Z,22.08
2018-10-17T13:50:32.996Z,21.99
2018-10-17T13:51:34.324Z,21.98
2018-10-17T13:52:32.646Z,21.95
2018-10-17T13:53:32.802Z,21.95
2018-10-17T13:54:33.177Z,22.00
2018-10-17T13:55:32.733Z,21.98
2018-10-17T13:56:32.511Z,22.10
2018-10-17T13:57:32.483Z,22.02
2018-10-17T13:58:32.445Z,22.02
2018-10-17T13:59:32.430Z,22.10
2018-10-17T14:00:32.389Z,21.98
2018-10-17T14:01:32.355Z,21.92
2018-10-17T14:02:32.323Z,21.96
2018-10-17T14:03:32.293Z,21.95
2018-10-17T14:04:32.263Z,21.88
2018-10-17T14:05:32.232Z,22.00
2018-10-17T14:06:32.201Z,21.98
2018-10-17T14:07:32.164Z,21.92
2018-10-17T14:08:32.135Z,21.95
2018-10-17T14:09:32.101Z,21.82
2018-10-17T14:10:32.073Z,21.82
2018-10-17T14:11:32.124Z,21.80
2018-10-17T14:12:32.017Z,21.83
2018-10-17T14:13:32.080Z,21.82
2018-10-17T14:14:31.949Z,21.82
2018-10-17T14:15:31.915Z,21.82
2018-10-17T14:16:31.881Z,21.82
2018-10-17T14:17:31.858Z,21.89
2018-10-17T14:18:31.823Z,21.79
2018-10-17T14:19:31.789Z,21.72
2018-10-17T14:20:31.769Z,21.73
2018-10-17T14:21:31.726Z,21.69
2018-10-17T14:22:31.699Z,21.69
2018-10-17T14:23:31.751Z,21.58
2018-10-17T14:24:31.635Z,21.55
2018-10-17T14:25:31.619Z,21.62
2018-10-17T14:26:31.575Z,21.55
2018-10-17T14:27:31.535Z,21.58
2018-10-17T14:28:31.568Z,21.51
2018-10-17T14:29:31.541Z,21.52
2018-10-17T14:30:31.442Z,21.43
2018-10-17T14:31:31.418Z,21.51
2018-10-17T14:32:31.381Z,21.51
2018-10-17T14:33:31.350Z,21.61
2018-10-17T14:34:31.318Z,21.61
2018-10-17T14:35:31.296Z,21.62
2018-10-17T14:36:31.254Z,21.61
2018-10-17T14:37:31.337Z,21.57
2018-10-17T14:38:31.219Z,21.69
2018-10-17T14:39:31.274Z,21.67
2018-10-17T14:40:31.163Z,21.75
2018-10-17T14:41:31.100Z,21.64
2018-10-17T14:42:31.068Z,21.55
2018-10-17T14:43:31.086Z,21.66
2018-10-17T14:44:31.001Z,21.61
2018-10-17T14:45:30.970Z,21.52
2018-10-17T14:46:30.944Z,21.42
2018-10-17T14:47:30.904Z,21.46
2018-10-17T14:48:30.879Z,21.66
2018-10-17T14:49:30.845Z,21.43
2018-10-17T14:50:30.814Z,21.43
2018-10-17T14:51:30.782Z,21.52
2018-10-17T14:52:30.748Z,21.52
2018-10-17T14:53:30.714Z,21.43
2018-10-17T14:54:30.683Z,21.40
2018-10-17T14:55:30.678Z,21.43
2018-10-17T14:56:30.625Z,21.48
2018-10-17T14:57:30.594Z,21.46
2018-10-17T14:58:30.563Z,21.39
2018-10-17T14:59:30.523Z,21.35
2018-10-17T15:00:30.496Z,21.46
2018-10-17T15:01:30.464Z,21.37
2018-10-17T15:02:30.430Z,21.43
2018-10-17T15:03:30.404Z,21.40
2018-10-17T15:04:30.370Z,21.42
2018-10-17T15:05:30.339Z,21.36
2018-10-17T15:06:30.301Z,21.22
2018-10-17T15:07:30.280Z,21.37
2018-10-17T15:08:30.242Z,21.32
2018-10-17T15:09:30.209Z,21.27
2018-10-17T15:10:30.303Z,21.27
2018-10-17T15:11:30.222Z,21.32
2018-10-17T15:12:30.290Z,21.32
2018-10-17T15:13:30.081Z,21.25
2018-10-17T15:14:30.055Z,21.27
2018-10-17T15:15:30.023Z,21.22
2018-10-17T15:16:30.010Z,21.20
2018-10-17T15:17:29.959Z,21.12
2018-10-17T15:18:29.926Z,21.20
2018-10-17T15:19:29.893Z,21.15
2018-10-17T15:20:29.863Z,21.06
2018-10-17T15:21:29.830Z,21.15
2018-10-17T15:22:29.801Z,20.97
2018-10-17T15:23:29.762Z,21.06
2018-10-17T15:24:29.752Z,20.99
2018-10-17T15:25:29.706Z,21.00
2018-10-17T15:26:29.665Z,20.96
2018-10-17T15:27:29.644Z,20.99
2018-10-17T15:28:29.624Z,21.03
2018-10-17T15:29:29.574Z,21.02
2018-10-17T15:30:29.549Z,21.05
2018-10-17T15:31:29.603Z,20.99
2018-10-17T15:32:29.499Z,21.00
2018-10-17T15:33:29.450Z,21.00
2018-10-17T15:34:29.409Z,20.93
2018-10-17T15:35:29.384Z,20.93
2018-10-17T15:36:29.348Z,20.87
2018-10-17T15:37:29.356Z,20.88
2018-10-17T15:38:29.280Z,20.85
2018-10-17T15:39:29.263Z,20.84
2018-10-17T15:40:29.219Z,20.80
2018-10-17T15:41:29.187Z,20.81
2018-10-17T15:42:29.157Z,20.72
2018-10-17T15:43:29.128Z,20.80
2018-10-17T15:44:29.089Z,20.81
2018-10-17T15:45:29.057Z,20.72
2018-10-17T15:46:29.023Z,20.72
2018-10-17T15:47:28.997Z,20.67
2018-10-17T15:48:28.962Z,20.58
2018-10-17T15:49:28.931Z,20.60
2018-10-17T15:50:28.900Z,20.59
2018-10-17T15:51:28.862Z,20.59
2018-10-17T15:52:28.832Z,20.59
2018-10-17T16:05:13.188Z,20.39
2018-10-17T16:06:12.729Z,20.32
2018-10-17T16:07:12.664Z,20.22
2018-10-17T16:08:12.685Z,20.21
2018-10-17T16:09:12.594Z,20.13
2018-10-17T16:10:12.558Z,20.03
2018-10-17T16:11:12.521Z,20.11
2018-10-17T16:12:12.570Z,20.07
2018-10-17T16:13:12.453Z,20.02
2018-10-17T16:14:12.521Z,19.85
2018-10-17T16:15:12.387Z,19.86
2018-10-17T16:16:12.355Z,19.89
2018-10-17T16:17:12.385Z,19.85
2018-10-17T16:18:12.376Z,19.79
2018-10-17T16:19:12.251Z,19.77
2018-10-17T16:20:12.285Z,19.70
2018-10-17T16:21:12.181Z,19.73
2018-10-17T16:22:12.148Z,19.70
2018-10-17T16:23:12.155Z,19.64
2018-10-17T16:24:12.162Z,19.62
2018-10-17T16:25:12.050Z,19.63
2018-10-17T16:26:12.073Z,19.55
2018-10-17T16:27:11.982Z,19.54
2018-10-17T16:28:12.016Z,19.55
2018-10-17T16:29:11.921Z,19.51
2018-10-17T16:30:11.914Z,19.45
2018-10-17T16:31:11.929Z,19.40
2018-10-17T16:32:11.866Z,19.37
2018-10-17T16:33:11.784Z,19.30
2018-10-17T16:34:11.751Z,19.37
2018-10-17T16:35:11.717Z,19.33
2018-10-17T16:36:11.726Z,19.27
2018-10-17T16:37:11.654Z,19.16
2018-10-17T16:38:11.692Z,19.09
2018-10-17T16:39:11.588Z,19.11
2018-10-17T16:40:11.549Z,19.15
2018-10-17T16:41:11.588Z,19.07
2018-10-17T16:42:11.567Z,19.04
2018-10-17T16:43:11.451Z,19.07
2018-10-17T16:44:11.462Z,18.86
2018-10-17T16:45:11.383Z,18.92
2018-10-17T16:46:11.355Z,18.92
2018-10-17T16:47:11.326Z,18.93
2018-10-17T16:48:11.357Z,18.96
2018-10-17T16:49:11.257Z,18.95
2018-10-17T16:50:11.324Z,18.88
2018-10-17T16:51:11.187Z,18.81
2018-10-17T16:52:11.150Z,18.86
2018-10-17T16:53:11.118Z,18.80
2018-10-17T16:54:11.159Z,18.75
2018-10-17T16:55:11.113Z,18.75
2018-10-17T16:56:11.024Z,18.70
2018-10-17T16:57:11.055Z,18.59
2018-10-17T16:58:11.000Z,18.56
2018-10-17T16:59:10.928Z,18.60
2018-10-17T17:00:10.969Z,18.65
2018-10-17T17:01:10.860Z,18.55
2018-10-17T17:02:10.822Z,18.59
2018-10-17T17:03:10.818Z,18.59
2018-10-17T17:04:10.801Z,18.50
2018-10-17T17:05:10.771Z,18.50
2018-10-17T17:06:10.722Z,18.50
2018-10-17T17:07:10.655Z,18.47
2018-10-17T17:08:10.630Z,18.43
2018-10-17T17:09:10.641Z,18.43
2018-10-17T17:10:10.561Z,18.44
2018-10-17T17:11:10.519Z,18.44
2018-10-17T17:12:10.518Z,18.37
2018-10-17T17:13:10.458Z,18.47
2018-10-17T17:14:10.421Z,18.40
2018-10-17T17:15:10.487Z,18.44
2018-10-17T17:16:10.354Z,18.43
2018-10-17T17:17:10.316Z,18.40
2018-10-17T17:18:10.351Z,18.31
2018-10-17T17:19:10.252Z,18.22
2018-10-17T17:20:10.223Z,18.22
2018-10-17T17:21:10.270Z,18.25
2018-10-17T17:22:10.184Z,18.22
2018-10-17T17:23:10.116Z,18.23
2018-10-17T17:24:10.176Z,18.33
2018-10-17T17:25:10.048Z,18.29
2018-10-17T17:26:10.018Z,18.19
2018-10-17T17:27:09.990Z,18.22
2018-10-17T17:28:09.953Z,18.23
2018-10-17T17:29:09.913Z,18.22
2018-10-17T17:30:09.963Z,18.23
2018-10-17T17:31:09.852Z,18.11
2018-10-17T17:32:09.818Z,18.13
2018-10-17T17:33:09.870Z,18.08
2018-10-17T17:34:09.749Z,18.11
2018-10-17T17:35:09.712Z,18.18
2018-10-17T17:36:09.753Z,18.13
2018-10-17T17:37:09.648Z,18.18
2018-10-17T17:38:09.612Z,18.15
2018-10-17T17:39:09.582Z,18.13
2018-10-17T17:40:09.547Z,18.15
2018-10-17T17:41:09.513Z,18.11
2018-10-17T17:42:09.547Z,18.03
2018-10-17T17:43:09.442Z,18.04
2018-10-17T17:44:09.406Z,18.10
2018-10-17T17:45:09.380Z,18.00
2018-10-17T17:46:09.411Z,18.07
2018-10-17T17:47:09.306Z,17.97
2018-10-17T17:48:09.273Z,17.97
2018-10-17T17:49:09.237Z,17.94
2018-10-17T17:50:09.208Z,17.85
2018-10-17T17:51:09.172Z,17.89
2018-10-17T17:52:09.153Z,17.94
2018-10-17T17:53:09.107Z,17.97
2018-10-17T17:54:09.074Z,17.89
2018-10-17T17:55:09.035Z,17.92
2018-10-17T17:56:08.998Z,17.98
2018-10-17T17:57:08.965Z,17.86
2018-10-17T17:58:08.966Z,17.83
2018-10-17T17:59:08.900Z,17.86
2018-10-17T18:00:08.878Z,17.94
2018-10-17T18:01:08.831Z,17.80
2018-10-17T18:02:08.799Z,17.82
2018-10-17T18:03:08.770Z,17.82
2018-10-17T18:04:08.812Z,17.78
2018-10-17T18:05:08.699Z,17.79
2018-10-17T18:06:08.663Z,17.79
2018-10-17T18:07:08.626Z,17.78
2018-10-17T18:08:08.642Z,17.86
2018-10-17T18:09:08.560Z,17.80
2018-10-17T18:10:08.549Z,17.80
2018-10-17T18:11:08.492Z,17.85
2018-10-17T18:12:08.461Z,17.74
2018-10-17T18:13:08.427Z,17.79
2018-10-17T18:14:08.401Z,17.78
2018-10-17T18:15:08.353Z,17.80
2018-10-17T18:16:08.430Z,17.74
2018-10-17T18:17:08.289Z,17.79
2018-10-17T18:18:08.254Z,17.74
2018-10-17T18:19:08.217Z,17.76
2018-10-17T18:20:08.183Z,17.72
2018-10-17T18:21:08.149Z,17.71
2018-10-17T18:22:08.191Z,17.74
2018-10-17T18:23:08.084Z,17.68
2018-10-17T18:24:08.051Z,17.74
2018-10-17T18:25:08.018Z,17.79
2018-10-17T18:26:07.987Z,17.76
2018-10-17T18:27:07.945Z,17.72
2018-10-17T18:28:07.927Z,17.79
2018-10-17T18:29:07.873Z,17.67
2018-10-17T18:30:07.842Z,17.70
2018-10-17T18:31:07.811Z,17.68
2018-10-17T18:32:07.777Z,17.68
2018-10-17T18:33:07.737Z,17.68
2018-10-17T18:34:07.738Z,17.74
2018-10-17T18:35:07.677Z,17.71
2018-10-17T18:36:07.659Z,17.68
2018-10-17T18:37:07.608Z,17.72
2018-10-17T18:38:07.570Z,17.67
2018-10-17T18:39:07.537Z,17.65
2018-10-17T18:40:07.557Z,17.64
2018-10-17T18:41:07.464Z,17.63
2018-10-17T18:42:07.432Z,17.78
2018-10-17T18:43:07.399Z,17.56
2018-10-17T18:44:07.371Z,17.56
2018-10-17T18:45:07.332Z,17.64
2018-10-17T18:46:07.297Z,17.59
2018-10-17T18:47:07.280Z,17.65
2018-10-17T18:48:07.226Z,17.63
2018-10-17T18:49:07.195Z,17.57
2018-10-17T18:50:07.189Z,17.59
2018-10-17T18:51:07.142Z,17.63
2018-10-17T18:52:07.087Z,17.64
2018-10-17T18:53:07.054Z,17.54
2018-10-17T18:54:07.021Z,17.64
2018-10-17T18:55:06.987Z,17.54
2018-10-17T18:56:06.965Z,17.63
2018-10-17T18:57:06.994Z,17.64
2018-10-17T18:58:06.885Z,17.60
2018-10-17T18:59:06.847Z,17.63
2018-10-17T19:00:06.874Z,17.49
2018-10-17T19:01:06.782Z,17.49
2018-10-17T19:02:06.747Z,17.63
2018-10-17T19:03:06.747Z,17.59
2018-10-17T19:04:06.681Z,17.63
2018-10-17T19:05:06.642Z,17.56
2018-10-17T19:06:06.609Z,17.57
2018-10-17T19:07:06.575Z,17.60
2018-10-17T19:08:06.576Z,17.60
2018-10-17T19:47:02.415Z,16.97
2018-10-17T19:48:01.971Z,17.06
2018-10-17T19:49:01.923Z,17.09
2018-10-17T19:50:01.888Z,17.05
2018-10-17T19:51:01.867Z,17.05
2018-10-17T19:52:01.819Z,16.94
2018-10-17T19:53:01.779Z,17.04
2018-10-17T19:54:01.742Z,16.97
2018-10-17T19:55:01.709Z,16.90
2018-10-17T19:56:01.764Z,16.91
2018-10-17T19:57:01.679Z,16.86
2018-10-17T19:58:01.607Z,16.89
2018-10-17T19:59:01.565Z,16.96
2018-10-17T20:00:01.532Z,16.90
2018-10-17T20:01:01.508Z,16.87
2018-10-17T20:02:01.469Z,16.86
2018-10-17T20:03:01.461Z,16.87
2018-10-17T20:04:01.393Z,16.86
2018-10-17T20:05:01.358Z,16.87
2018-10-17T20:06:01.320Z,16.86
2018-10-17T20:07:01.968Z,16.81
2018-10-17T20:08:01.252Z,16.90
2018-10-17T20:09:01.256Z,16.83
2018-10-17T20:10:01.208Z,16.87
2018-10-17T20:11:01.151Z,16.86
2018-10-17T20:12:01.116Z,16.83
2018-10-17T20:13:01.077Z,16.79
2018-10-17T20:14:01.090Z,16.81